createdAt,value
2019-03-06T00:00:46.564Z,7.05
2019-03-06T00:03:14.846Z,10.60
2019-03-06T00:05:43.261Z,9.43
2019-03-06T00:08:11.601Z,10.60
2019-03-06T00:10:39.956Z,11.43
2019-03-06T00:13:08.391Z,9.63
2019-03-06T00:15:36.767Z,10.27
2019-03-06T00:18:05.621Z,12.47
2019-03-06T00:20:33.977Z,12.27
2019-03-06T00:23:02.357Z,12.63
2019-03-06T00:25:30.808Z,14.03
2019-03-06T00:27:59.182Z,12.63
2019-03-06T00:30:27.865Z,12.77
2019-03-06T00:32:56.226Z,11.80
2019-03-06T00:35:34.946Z,17.82
2019-03-06T00:38:04.242Z,13.53
2019-03-06T00:40:34.165Z,14.03
2019-03-06T00:43:03.346Z,17.20
2019-03-06T00:45:31.941Z,13.80
2019-03-06T00:48:00.321Z,13.67
2019-03-06T00:50:28.694Z,14.60
2019-03-06T00:52:57.049Z,17.83
2019-03-06T00:55:25.363Z,15.33
2019-03-06T00:57:55.323Z,17.00
2019-03-06T01:00:26.410Z,13.57
2019-03-06T01:02:54.698Z,13.87
2019-03-06T01:05:23.713Z,20.37
2019-03-06T01:07:52.022Z,14.93
2019-03-06T01:10:20.450Z,21.23
2019-03-06T01:12:48.732Z,15.53
2019-03-06T01:15:18.469Z,18.90
2019-03-06T01:17:46.897Z,14.57
2019-03-06T01:20:15.517Z,15.72
2019-03-06T01:22:43.831Z,19.97
2019-03-06T01:25:14.545Z,17.80
2019-03-06T01:27:42.917Z,19.20
2019-03-06T01:30:20.065Z,20.03
2019-03-06T01:32:52.964Z,20.00
2019-03-06T01:35:38.161Z,16.82
2019-03-06T01:38:26.409Z,17.17
2019-03-06T01:40:56.339Z,14.20
2019-03-06T01:43:35.300Z,20.80
2019-03-06T01:46:03.673Z,16.40
2019-03-06T01:48:32.723Z,17.17
2019-03-06T01:51:01.013Z,16.43
2019-03-06T01:53:30.743Z,19.23
2019-03-06T01:55:59.092Z,18.30
2019-03-06T01:58:27.472Z,17.63
2019-03-06T02:00:55.852Z,19.03
2019-03-06T02:03:24.152Z,17.83
2019-03-06T02:05:54.147Z,19.93
2019-03-06T02:08:22.530Z,17.02
2019-03-06T02:10:51.192Z,15.10
2019-03-06T02:13:23.633Z,18.63
2019-03-06T02:15:51.933Z,16.33
2019-03-06T02:18:20.226Z,15.13
2019-03-06T02:20:48.538Z,16.10
2019-03-06T02:23:16.908Z,12.97
2019-03-06T02:25:45.215Z,14.03
2019-03-06T02:28:13.521Z,18.77
2019-03-06T02:30:41.888Z,17.13
2019-03-06T02:33:10.274Z,15.30
2019-03-06T02:35:39.047Z,13.83
2019-03-06T02:38:07.420Z,16.42
2019-03-06T02:40:35.783Z,17.67
2019-03-06T02:43:04.523Z,18.20
2019-03-06T02:45:32.830Z,22.90
2019-03-06T02:48:01.133Z,16.03
2019-03-06T02:50:29.814Z,25.17
2019-03-06T02:52:58.203Z,16.03
2019-03-06T02:55:28.973Z,19.30
2019-03-06T02:58:07.865Z,13.23
2019-03-06T03:00:38.486Z,14.70
2019-03-06T03:03:24.998Z,14.77
2019-03-06T03:05:57.928Z,11.43
2019-03-06T03:08:26.341Z,14.97
2019-03-06T03:10:54.634Z,17.50
2019-03-06T03:13:22.943Z,19.63
2019-03-06T03:15:51.297Z,20.07
2019-03-06T03:18:19.615Z,12.77
2019-03-06T03:20:47.983Z,16.77
2019-03-06T03:23:16.798Z,14.50
2019-03-06T03:25:45.089Z,17.73
2019-03-06T03:28:13.577Z,19.47
2019-03-06T03:30:44.212Z,16.90
2019-03-06T03:33:11.969Z,13.32
2019-03-06T03:35:40.738Z,12.93
2019-03-06T03:38:09.031Z,18.83
2019-03-06T03:40:37.503Z,13.53
2019-03-06T03:43:05.873Z,13.43
2019-03-06T03:45:34.191Z,15.83
2019-03-06T03:48:02.562Z,11.67
2019-03-06T03:50:32.988Z,12.03
2019-03-06T03:53:01.299Z,13.30
2019-03-06T03:55:29.658Z,14.47
2019-03-06T03:57:58.039Z,12.53
2019-03-06T04:00:26.455Z,10.43
2019-03-06T04:02:54.956Z,10.43
2019-03-06T04:05:23.377Z,15.20
2019-03-06T04:07:51.699Z,11.97
2019-03-06T04:10:20.061Z,17.25
2019-03-06T04:12:48.410Z,14.67
2019-03-06T04:15:17.925Z,12.73
2019-03-06T04:17:46.207Z,13.53
2019-03-06T04:20:16.754Z,13.72
2019-03-06T04:22:45.197Z,11.70
2019-03-06T04:25:13.753Z,14.13
2019-03-06T04:27:42.109Z,12.33
2019-03-06T04:30:20.382Z,15.32
2019-03-06T04:32:48.755Z,14.87
2019-03-06T04:35:17.185Z,13.48
2019-03-06T04:37:45.583Z,17.03
2019-03-06T04:40:16.622Z,14.47
2019-03-06T04:42:44.993Z,13.60
2019-03-06T04:45:15.676Z,14.47
2019-03-06T04:47:44.037Z,9.93
2019-03-06T04:50:14.429Z,14.15
2019-03-06T04:52:43.221Z,13.57
2019-03-06T04:55:13.812Z,15.83
2019-03-06T04:57:42.160Z,12.70
2019-03-06T05:00:22.629Z,12.95
2019-03-06T05:02:51.420Z,14.53
2019-03-06T05:05:19.778Z,15.47
2019-03-06T05:07:48.134Z,12.37
2019-03-06T05:10:16.587Z,8.98
2019-03-06T05:12:44.966Z,10.20
2019-03-06T05:15:14.918Z,11.18
2019-03-06T05:18:01.142Z,8.83
2019-03-06T05:20:29.969Z,17.00
2019-03-06T05:22:58.334Z,12.20
2019-03-06T05:25:27.013Z,14.90
2019-03-06T05:27:55.388Z,9.40
2019-03-06T05:30:25.395Z,8.03
2019-03-06T05:33:17.761Z,10.40
2019-03-06T05:36:17.886Z,11.87
2019-03-06T05:39:05.660Z,11.03
2019-03-06T05:41:33.948Z,9.87
2019-03-06T05:44:03.185Z,9.07
2019-03-06T05:46:31.537Z,9.97
2019-03-06T05:48:59.828Z,13.33
2019-03-06T05:51:29.783Z,13.17
2019-03-06T05:53:58.098Z,12.27
2019-03-06T05:56:26.457Z,12.33
2019-03-06T05:58:54.914Z,11.37
2019-03-06T06:01:23.280Z,10.93
2019-03-06T06:03:51.634Z,13.10
2019-03-06T06:06:19.997Z,9.35
2019-03-06T06:08:48.301Z,9.33
2019-03-06T06:11:16.648Z,12.45
2019-03-06T06:13:46.685Z,5.83
2019-03-06T06:16:15.042Z,10.67
2019-03-06T06:18:43.317Z,9.27
2019-03-06T06:21:25.601Z,11.60
2019-03-06T06:23:55.548Z,9.13
2019-03-06T06:26:24.101Z,6.80
2019-03-06T06:28:52.484Z,9.50
2019-03-06T06:31:22.001Z,7.28
2019-03-06T06:33:50.282Z,8.67
2019-03-06T06:36:18.689Z,9.10
2019-03-06T06:38:47.556Z,6.93
2019-03-06T06:41:15.936Z,6.33
2019-03-06T06:43:44.341Z,9.60
2019-03-06T06:46:12.694Z,8.23
2019-03-06T06:48:41.050Z,12.67
2019-03-06T06:51:21.804Z,12.23
2019-03-06T06:54:02.412Z,11.03
2019-03-06T06:56:36.709Z,8.57
2019-03-06T06:59:14.731Z,9.23
2019-03-06T07:02:07.035Z,14.47
2019-03-06T07:04:49.001Z,7.37
2019-03-06T07:07:19.014Z,6.23
2019-03-06T07:10:03.743Z,8.43
2019-03-06T07:12:49.097Z,7.33
2019-03-06T07:15:21.790Z,12.37
2019-03-06T07:17:51.806Z,11.30
2019-03-06T07:20:21.766Z,12.10
2019-03-06T07:22:54.550Z,6.83
2019-03-06T07:25:27.228Z,10.27
2019-03-06T07:27:57.241Z,10.90
2019-03-06T07:30:30.153Z,10.87
2019-03-06T07:33:00.176Z,6.33
2019-03-06T07:36:02.046Z,10.07
2019-03-06T07:38:50.530Z,6.23
2019-03-06T07:41:36.482Z,9.07
2019-03-06T07:44:30.065Z,9.13
2019-03-06T07:47:12.876Z,9.20
2019-03-06T07:49:45.522Z,8.67
2019-03-06T07:52:29.179Z,8.70
2019-03-06T07:55:02.511Z,9.80
2019-03-06T07:57:32.518Z,10.10
2019-03-06T08:00:00.868Z,9.73
2019-03-06T08:02:49.165Z,12.17
2019-03-06T08:05:17.720Z,7.60
2019-03-06T08:07:46.421Z,7.90
2019-03-06T08:10:17.423Z,8.83
2019-03-06T08:12:56.428Z,8.50
2019-03-06T08:15:27.241Z,9.47
2019-03-06T08:18:03.149Z,13.77
2019-03-06T08:20:51.238Z,9.33
2019-03-06T08:23:21.657Z,6.93
2019-03-06T08:25:51.622Z,7.63
2019-03-06T08:28:20.079Z,11.07
2019-03-06T08:30:56.154Z,8.63
2019-03-06T08:33:25.049Z,9.73
2019-03-06T08:35:53.349Z,6.80
2019-03-06T08:38:21.737Z,11.00
2019-03-06T08:40:50.120Z,7.00
2019-03-06T08:43:18.801Z,8.77
2019-03-06T08:45:49.385Z,12.77
2019-03-06T08:48:25.243Z,12.73
2019-03-06T08:50:56.375Z,11.50
2019-03-06T08:53:32.298Z,10.55
2019-03-06T08:56:05.172Z,9.33
2019-03-06T08:58:47.030Z,8.53
2019-03-06T09:01:36.461Z,8.20
2019-03-06T09:04:24.046Z,7.67
2019-03-06T09:06:54.061Z,11.87
2019-03-06T09:09:36.242Z,9.13
2019-03-06T09:12:10.407Z,8.93
2019-03-06T09:14:40.390Z,9.33
2019-03-06T09:17:28.578Z,6.57
2019-03-06T09:19:58.924Z,9.07
2019-03-06T09:22:38.145Z,13.10
2019-03-06T09:25:23.494Z,8.67
2019-03-06T09:27:56.202Z,8.80
2019-03-06T09:30:31.677Z,9.77
2019-03-06T09:33:01.617Z,11.53
2019-03-06T09:35:37.702Z,11.00
2019-03-06T09:38:13.840Z,9.27
2019-03-06T09:40:49.808Z,8.00
2019-03-06T09:43:34.727Z,7.07
2019-03-06T09:46:07.670Z,8.50
2019-03-06T09:48:40.394Z,6.90
2019-03-06T09:51:25.834Z,7.80
2019-03-06T09:54:07.741Z,5.43
2019-03-06T09:56:40.505Z,8.80
2019-03-06T09:59:10.440Z,8.10
2019-03-06T10:01:43.437Z,7.10
2019-03-06T10:04:19.456Z,4.28
2019-03-06T10:06:49.394Z,8.53
2019-03-06T10:09:22.945Z,6.97
2019-03-06T10:11:52.928Z,11.60
2019-03-06T10:14:39.050Z,6.50
2019-03-06T10:17:15.483Z,7.77
2019-03-06T10:19:48.325Z,7.60
2019-03-06T10:22:16.893Z,11.67
2019-03-06T10:24:45.287Z,7.27
2019-03-06T10:27:13.861Z,7.75
2019-03-06T10:29:42.225Z,8.67
2019-03-06T10:32:10.610Z,7.97
2019-03-06T10:34:39.259Z,5.67
2019-03-06T10:39:35.972Z,8.47
2019-03-06T10:42:04.513Z,6.83
2019-03-06T10:44:32.967Z,6.00
2019-03-06T10:47:01.417Z,5.50
2019-03-06T10:49:30.105Z,8.27
2019-03-06T10:51:58.626Z,9.27
2019-03-06T10:54:26.987Z,11.60
2019-03-06T10:56:56.774Z,6.30
2019-03-06T10:59:25.143Z,5.78
2019-03-06T11:01:53.580Z,8.37
2019-03-06T11:04:29.128Z,8.33
2019-03-06T11:06:57.553Z,7.42
2019-03-06T11:09:26.364Z,7.73
2019-03-06T11:11:54.865Z,13.33
2019-03-06T11:14:23.230Z,8.17
2019-03-06T11:16:53.314Z,5.07
2019-03-06T11:19:21.984Z,8.35
2019-03-06T11:21:50.363Z,7.80
2019-03-06T11:24:31.030Z,4.37
2019-03-06T11:27:04.188Z,5.00
2019-03-06T11:29:30.051Z,6.83
2019-03-06T11:31:58.410Z,6.47
2019-03-06T11:34:26.806Z,7.75
2019-03-06T11:36:55.166Z,8.83
2019-03-06T11:39:23.741Z,7.00
2019-03-06T11:41:52.128Z,8.93
2019-03-06T11:44:20.508Z,6.20
2019-03-06T11:47:08.331Z,10.10
2019-03-06T11:49:47.046Z,7.42
2019-03-06T11:52:15.385Z,8.73
2019-03-06T11:54:43.782Z,5.90
2019-03-06T11:57:12.187Z,8.50
2019-03-06T11:59:40.561Z,12.15
2019-03-06T12:02:09.046Z,8.38
2019-03-06T12:04:37.915Z,5.62
2019-03-06T12:07:06.288Z,8.75
2019-03-06T12:09:34.657Z,8.45
2019-03-06T12:12:04.062Z,10.60
2019-03-06T12:14:32.417Z,8.70
2019-03-06T12:17:00.796Z,4.60
2019-03-06T12:19:29.165Z,6.13
2019-03-06T12:21:57.538Z,8.07
2019-03-06T12:24:26.006Z,7.37
2019-03-06T12:26:54.360Z,6.47
2019-03-06T12:29:22.782Z,10.75
2019-03-06T12:31:51.132Z,5.87
2019-03-06T12:34:19.421Z,8.13
2019-03-06T12:36:47.783Z,7.57
2019-03-06T12:39:16.134Z,4.37
2019-03-06T12:41:44.652Z,7.17
2019-03-06T12:44:13.328Z,6.90
2019-03-06T12:46:42.418Z,10.40
2019-03-06T12:49:11.373Z,7.93
2019-03-06T12:51:39.805Z,8.40
2019-03-06T12:54:08.174Z,8.20
2019-03-06T12:56:36.636Z,6.73
2019-03-06T12:59:05.662Z,9.73
2019-03-06T13:01:34.070Z,4.90
2019-03-06T13:04:02.821Z,8.10
2019-03-06T13:06:31.212Z,6.83
2019-03-06T13:08:59.963Z,7.70
2019-03-06T13:11:28.393Z,6.00
2019-03-06T13:13:56.753Z,6.57
2019-03-06T13:16:25.169Z,7.97
2019-03-06T13:18:53.606Z,6.60
2019-03-06T13:21:22.271Z,9.85
2019-03-06T13:23:50.677Z,5.37
2019-03-06T13:26:19.069Z,5.33
2019-03-06T13:28:47.427Z,10.60
2019-03-06T13:31:15.797Z,9.60
2019-03-06T13:33:45.853Z,7.67
2019-03-06T13:36:14.313Z,16.27
2019-03-06T13:38:44.342Z,8.37
2019-03-06T13:41:12.697Z,10.97
2019-03-06T13:44:00.496Z,8.20
2019-03-06T13:46:28.987Z,7.73
2019-03-06T13:48:57.406Z,9.07
2019-03-06T13:51:25.778Z,9.33
2019-03-06T13:53:54.160Z,3.93
2019-03-06T13:56:22.537Z,9.98
2019-03-06T13:58:50.973Z,10.77
2019-03-06T14:01:19.474Z,6.80
2019-03-06T14:03:48.101Z,8.87
2019-03-06T14:06:16.504Z,7.07
2019-03-06T14:08:44.883Z,4.83
2019-03-06T14:11:13.444Z,6.70
2019-03-06T14:13:41.841Z,7.00
2019-03-06T14:16:10.234Z,5.67
2019-03-06T14:18:39.002Z,9.10
2019-03-06T16:10:20.599Z,7.13
2019-03-06T16:12:48.983Z,5.17
2019-03-06T16:15:17.371Z,9.30
2019-03-06T16:17:45.843Z,11.60
2019-03-06T16:20:18.828Z,6.65
2019-03-06T16:22:47.570Z,7.73
2019-03-06T16:25:15.937Z,7.03
2019-03-06T16:27:46.070Z,6.67
2019-03-06T16:30:22.487Z,9.70
2019-03-06T16:32:50.913Z,9.70
2019-03-06T16:35:19.292Z,7.90
2019-03-06T16:37:47.673Z,9.20
2019-03-06T16:40:20.802Z,8.93
2019-03-06T16:42:49.369Z,5.90
2019-03-06T16:45:23.902Z,7.40
2019-03-06T16:47:53.993Z,8.87
2019-03-06T16:50:22.362Z,5.67
2019-03-06T16:52:51.194Z,5.83
2019-03-06T16:55:22.054Z,13.03
2019-03-06T16:57:50.428Z,6.77
2019-03-06T17:00:24.613Z,4.93
2019-03-06T17:02:53.056Z,6.63
2019-03-06T17:05:21.661Z,5.37
2019-03-06T17:07:50.672Z,7.67
2019-03-06T17:10:27.038Z,7.62
2019-03-06T17:12:55.722Z,4.77
2019-03-06T17:15:24.349Z,8.10
2019-03-06T17:17:52.784Z,4.27
2019-03-06T17:20:28.517Z,6.80
2019-03-06T17:22:57.240Z,6.67
2019-03-06T17:25:28.072Z,5.73
2019-03-06T17:27:55.853Z,4.90
2019-03-06T17:30:26.432Z,8.03
2019-03-06T17:33:00.736Z,7.63
2019-03-06T17:35:30.243Z,8.93
2019-03-06T17:37:58.688Z,6.83
2019-03-06T17:40:27.528Z,8.63
2019-03-06T17:42:55.920Z,5.93
2019-03-06T17:45:24.314Z,7.80
2019-03-06T17:47:52.672Z,5.60
2019-03-06T17:50:21.264Z,7.67
2019-03-06T17:52:55.729Z,8.33
2019-03-06T17:55:25.344Z,6.53
2019-03-06T17:58:00.332Z,5.87
2019-03-06T18:00:47.186Z,6.47
2019-03-06T18:03:25.134Z,7.70
2019-03-06T18:05:58.713Z,7.63
2019-03-06T18:08:31.650Z,8.50
2019-03-06T18:11:00.340Z,4.50
2019-03-06T18:13:43.151Z,6.53
2019-03-06T18:16:10.203Z,9.70
2019-03-06T18:18:38.560Z,8.43
2019-03-06T18:21:06.969Z,6.40
2019-03-06T18:23:35.349Z,7.97
2019-03-06T18:26:06.042Z,7.30
2019-03-06T18:28:34.504Z,7.67
2019-03-06T18:31:02.988Z,11.57
2019-03-06T18:33:31.414Z,14.20
2019-03-06T18:48:21.794Z,13.62
2019-03-06T18:50:50.243Z,11.70
2019-03-06T18:53:18.625Z,7.33
2019-03-06T18:55:47.005Z,12.55
2019-03-06T18:58:15.360Z,6.53
2019-03-06T19:00:43.764Z,6.50
2019-03-06T19:03:16.433Z,7.80
2019-03-06T19:05:44.702Z,8.50
2019-03-06T19:08:13.199Z,7.33
2019-03-06T19:10:41.552Z,8.23
2019-03-06T19:13:10.031Z,9.70
2019-03-06T19:15:38.384Z,5.20
2019-03-06T19:18:06.824Z,7.60
2019-03-06T19:20:35.177Z,12.75
2019-03-06T19:23:04.583Z,9.63
2019-03-06T19:25:33.834Z,8.68
2019-03-06T19:28:02.239Z,7.15
2019-03-06T19:30:30.709Z,11.53
2019-03-06T19:32:59.094Z,7.72
2019-03-06T19:35:32.189Z,9.03
2019-03-06T19:38:00.829Z,8.55
2019-03-06T19:40:29.489Z,8.58
2019-03-06T19:42:57.989Z,6.87
2019-03-06T19:45:26.394Z,7.37
2019-03-06T19:47:54.872Z,8.58
2019-03-06T19:50:25.645Z,10.17
2019-03-06T19:52:54.725Z,11.93
2019-03-06T19:55:23.533Z,9.53
2019-03-06T19:57:59.739Z,4.55
2019-03-06T20:00:29.832Z,5.67
2019-03-06T20:02:58.734Z,5.67
2019-03-06T20:05:39.616Z,10.03
2019-03-06T20:22:28.517Z,6.62
2019-03-06T20:24:56.922Z,9.88
2019-03-06T20:31:18.122Z,7.10
2019-03-06T20:33:46.478Z,8.78
2019-03-06T20:36:14.849Z,7.37
2019-03-06T20:38:43.239Z,6.08
2019-03-06T20:41:11.607Z,7.77
2019-03-06T20:43:40.509Z,7.03
2019-03-06T20:46:08.862Z,9.48
2019-03-06T20:48:37.437Z,5.35
2019-03-06T20:51:05.810Z,6.40
2019-03-06T20:53:34.224Z,8.07
2019-03-06T20:56:02.578Z,5.25
2019-03-06T20:58:30.941Z,10.48
2019-03-06T21:04:15.004Z,7.95
2019-03-06T21:06:45.809Z,7.10
2019-03-06T21:09:17.190Z,6.95
2019-03-06T21:11:49.612Z,5.20
2019-03-06T21:14:21.346Z,4.70
2019-03-06T21:17:15.837Z,6.60
2019-03-06T21:19:44.420Z,4.15
2019-03-06T21:22:12.873Z,7.60
2019-03-06T21:24:44.535Z,7.60
2019-03-06T21:27:14.717Z,7.45
2019-03-06T21:29:43.096Z,6.40
2019-03-06T21:32:11.588Z,5.20
2019-03-06T21:34:40.199Z,5.10
2019-03-06T21:52:49.099Z,4.92
2019-03-06T21:55:17.726Z,7.55
2019-03-06T21:57:46.630Z,4.00
2019-03-06T22:06:17.805Z,7.23
2019-03-06T22:08:48.124Z,7.33
2019-03-06T22:11:16.497Z,6.47
2019-03-06T22:13:45.079Z,7.62
2019-03-06T22:16:13.623Z,9.13
2019-03-06T22:18:42.107Z,7.95
2019-03-06T22:21:10.415Z,5.70
2019-03-06T22:23:38.785Z,7.15
2019-03-06T22:26:10.254Z,8.25
2019-03-06T22:28:42.950Z,7.03
2019-03-06T22:31:11.536Z,4.17
2019-03-06T22:33:39.987Z,11.33
2019-03-06T22:36:08.363Z,9.70
2019-03-06T22:38:36.721Z,6.90
2019-03-06T22:41:05.302Z,7.45
2019-03-06T22:43:33.925Z,8.30
2019-03-06T22:46:02.612Z,4.67
2019-03-06T22:48:31.010Z,7.80
2019-03-06T22:50:59.422Z,7.55
2019-03-06T22:53:28.183Z,5.50
2019-03-06T22:55:56.682Z,5.03
2019-03-06T22:58:25.045Z,7.92
2019-03-06T23:00:57.749Z,5.03
2019-03-06T23:03:26.769Z,5.37
2019-03-06T23:05:55.146Z,7.12
2019-03-06T23:08:23.583Z,5.40
2019-03-06T23:10:52.157Z,6.37
2019-03-06T23:13:20.606Z,5.40
2019-03-06T23:15:49.132Z,5.80
2019-03-06T23:18:17.443Z,6.43
2019-03-06T23:20:45.833Z,4.67
2019-03-06T23:23:14.211Z,6.87
2019-03-06T23:25:42.579Z,5.40
2019-03-06T23:28:11.450Z,5.30
2019-03-06T23:30:39.838Z,6.83
2019-03-06T23:33:08.202Z,4.40
2019-03-06T23:35:36.577Z,6.28
2019-03-06T23:38:05.594Z,5.90
2019-03-06T23:40:34.214Z,5.87
2019-03-06T23:43:02.574Z,6.28
2019-03-06T23:45:31.217Z,5.03
2019-03-06T23:47:59.585Z,4.17
2019-03-06T23:50:28.305Z,7.42
2019-03-06T23:53:06.955Z,7.22
2019-03-06T23:55:35.326Z,6.60
2019-03-06T23:58:04.706Z,5.26
